sensor_id;sensor_type;location;lat;lon;timestamp;pressure;altitude;pressure_sealevel;temperature;humidity
33496;BME280;19836;55.812;37.560;2023-02-19T00:01:28;98084.69;;;-3.01;62.81
33496;BME280;19836;55.812;37.560;2023-02-19T00:03:56;98084.72;;;-3.05;62.81
33496;BME280;19836;55.812;37.560;2023-02-19T00:06:24;98089.06;;;-3.03;62.90
33496;BME280;19836;55.812;37.560;2023-02-19T00:08:50;98080.31;;;-3.03;63.35
33496;BME280;19836;55.812;37.560;2023-02-19T00:11:19;98078.59;;;-3.07;63.19
33496;BME280;19836;55.812;37.560;2023-02-19T00:13:47;98077.72;;;-3.12;63.31
33496;BME280;19836;55.812;37.560;2023-02-19T00:16:19;98073.38;;;-3.08;63.00
33496;BME280;19836;55.812;37.560;2023-02-19T00:18:46;98068.97;;;-3.02;63.20
33496;BME280;19836;55.812;37.560;2023-02-19T00:21:12;98061.06;;;-2.93;63.24
33496;BME280;19836;55.812;37.560;2023-02-19T00:23:39;98065.44;;;-2.91;63.51
33496;BME280;19836;55.812;37.560;2023-02-19T00:26:07;98066.34;;;-2.96;63.58
33496;BME280;19836;55.812;37.560;2023-02-19T00:28:33;98071.59;;;-2.96;63.57
33496;BME280;19836;55.812;37.560;2023-02-19T00:31:12;98065.50;;;-3.03;63.55
33496;BME280;19836;55.812;37.560;2023-02-19T00:33:40;98061.19;;;-3.22;62.91
33496;BME280;19836;55.812;37.560;2023-02-19T00:36:06;98068.25;;;-3.40;63.53
33496;BME280;19836;55.812;37.560;2023-02-19T00:38:35;98071.78;;;-3.56;63.41
33496;BME280;19836;55.812;37.560;2023-02-19T00:41:02;98068.25;;;-3.58;63.16
33496;BME280;19836;55.812;37.560;2023-02-19T00:43:55;98061.31;;;-3.56;63.45
33496;BME280;19836;55.812;37.560;2023-02-19T00:46:27;98057.78;;;-3.49;63.37
33496;BME280;19836;55.812;37.560;2023-02-19T00:48:53;98052.56;;;-3.46;63.87
33496;BME280;19836;55.812;37.560;2023-02-19T00:51:21;98051.63;;;-3.35;64.38
33496;BME280;19836;55.812;37.560;2023-02-19T00:53:47;98049.91;;;-3.31;63.74
33496;BME280;19836;55.812;37.560;2023-02-19T00:56:14;98044.63;;;-3.28;63.78
33496;BME280;19836;55.812;37.560;2023-02-19T00:58:40;98038.50;;;-3.24;63.84
33496;BME280;19836;55.812;37.560;2023-02-19T01:01:06;98032.41;;;-3.31;64.19
33496;BME280;19836;55.812;37.560;2023-02-19T01:03:33;98033.34;;;-3.38;64.16
33496;BME280;19836;55.812;37.560;2023-02-19T01:06:00;98029.84;;;-3.33;64.04
33496;BME280;19836;55.812;37.560;2023-02-19T01:08:26;98020.25;;;-3.41;63.82
33496;BME280;19836;55.812;37.560;2023-02-19T01:10:52;98014.13;;;-3.37;63.74
33496;BME280;19836;55.812;37.560;2023-02-19T01:13:19;98013.22;;;-3.27;63.80
33496;BME280;19836;55.812;37.560;2023-02-19T01:15:44;98011.47;;;-3.28;64.12
33496;BME280;19836;55.812;37.560;2023-02-19T01:18:11;98012.38;;;-3.30;63.70
33496;BME280;19836;55.812;37.560;2023-02-19T01:20:39;98005.38;;;-3.27;64.15
33496;BME280;19836;55.812;37.560;2023-02-19T01:23:05;98001.88;;;-3.24;64.02
33496;BME280;19836;55.812;37.560;2023-02-19T01:25:31;98011.47;;;-3.32;64.47
33496;BME280;19836;55.812;37.560;2023-02-19T01:27:57;98002.81;;;-3.40;64.37
33496;BME280;19836;55.812;37.560;2023-02-19T01:30:23;98006.28;;;-3.38;64.37
33496;BME280;19836;55.812;37.560;2023-02-19T01:32:49;98008.00;;;-3.31;64.23
33496;BME280;19836;55.812;37.560;2023-02-19T01:35:17;98009.75;;;-3.28;64.42
33496;BME280;19836;55.812;37.560;2023-02-19T01:37:43;97995.78;;;-3.26;63.87
33496;BME280;19836;55.812;37.560;2023-02-19T01:40:09;98000.16;;;-3.37;64.37
33496;BME280;19836;55.812;37.560;2023-02-19T01:42:35;97994.09;;;-3.45;63.96
33496;BME280;19836;55.812;37.560;2023-02-19T01:45:38;97994.94;;;-3.45;64.30
33496;BME280;19836;55.812;37.560;2023-02-19T01:48:31;97986.25;;;-3.43;64.44
33496;BME280;19836;55.812;37.560;2023-02-19T01:51:06;97984.47;;;-3.43;64.55
33496;BME280;19836;55.812;37.560;2023-02-19T01:53:38;97986.22;;;-3.42;64.70
33496;BME280;19836;55.812;37.560;2023-02-19T01:56:05;97995.84;;;-3.44;64.48
33496;BME280;19836;55.812;37.560;2023-02-19T01:58:33;97995.84;;;-3.52;64.56
33496;BME280;19836;55.812;37.560;2023-02-19T02:01:02;97992.38;;;-3.55;63.99
33496;BME280;19836;55.812;37.560;2023-02-19T02:03:30;97998.50;;;-3.61;64.71
33496;BME280;19836;55.812;37.560;2023-02-19T02:06:01;97993.25;;;-3.62;64.46
33496;BME280;19836;55.812;37.560;2023-02-19T02:08:30;97992.38;;;-3.55;64.71
33496;BME280;19836;55.812;37.560;2023-02-19T02:11:19;97981.91;;;-3.55;64.92
33496;BME280;19836;55.812;37.560;2023-02-19T02:13:46;97995.00;;;-3.53;64.68
33496;BME280;19836;55.812;37.560;2023-02-19T02:19:10;97992.38;;;-3.53;64.61
33496;BME280;19836;55.812;37.560;2023-02-19T02:21:55;97977.53;;;-3.50;64.81
33496;BME280;19836;55.812;37.560;2023-02-19T02:35:52;97983.63;;;-3.48;64.85
33496;BME280;19836;55.812;37.560;2023-02-19T02:38:23;97981.00;;;-3.48;63.96
33496;BME280;19836;55.812;37.560;2023-02-19T02:40:51;97974.00;;;-3.43;64.51
33496;BME280;19836;55.812;37.560;2023-02-19T02:43:17;97982.72;;;-3.33;64.82
33496;BME280;19836;55.812;37.560;2023-02-19T02:45:43;97974.88;;;-3.35;63.92
33496;BME280;19836;55.812;37.560;2023-02-19T02:48:26;97973.16;;;-3.45;64.59
33496;BME280;19836;55.812;37.560;2023-02-19T02:51:05;97967.03;;;-3.44;64.01
33496;BME280;19836;55.812;37.560;2023-02-19T02:53:50;97954.84;;;-3.45;64.38
33496;BME280;19836;55.812;37.560;2023-02-19T02:56:39;97966.19;;;-3.52;64.60
33496;BME280;19836;55.812;37.560;2023-02-19T02:59:08;97968.88;;;-3.61;64.62
33496;BME280;19836;55.812;37.560;2023-02-19T03:01:49;97966.28;;;-3.68;63.93
33496;BME280;19836;55.812;37.560;2023-02-19T03:04:56;97965.41;;;-3.75;64.78
33496;BME280;19836;55.812;37.560;2023-02-19T03:10:14;97965.41;;;-3.73;64.58
33496;BME280;19836;55.812;37.560;2023-02-19T03:12:43;97976.78;;;-3.87;64.01
33496;BME280;19836;55.812;37.560;2023-02-19T03:15:42;97964.53;;;-3.77;64.28
33496;BME280;19836;55.812;37.560;2023-02-19T03:18:29;97956.69;;;-3.74;64.43
33496;BME280;19836;55.812;37.560;2023-02-19T03:21:18;97957.56;;;-3.77;64.70
33496;BME280;19836;55.812;37.560;2023-02-19T03:23:46;97962.81;;;-3.75;64.44
33496;BME280;19836;55.812;37.560;2023-02-19T03:26:32;97954.13;;;-3.88;65.22
33496;BME280;19836;55.812;37.560;2023-02-19T03:28:59;97955.00;;;-3.93;65.23
33496;BME280;19836;55.812;37.560;2023-02-19T03:31:45;97948.88;;;-3.91;64.86
33496;BME280;19836;55.812;37.560;2023-02-19T03:34:24;97952.34;;;-3.84;64.63
33496;BME280;19836;55.812;37.560;2023-02-19T03:36:56;97940.13;;;-3.79;64.76
33496;BME280;19836;55.812;37.560;2023-02-19T03:39:25;97941.00;;;-3.74;64.88
33496;BME280;19836;55.812;37.560;2023-02-19T03:42:01;97943.56;;;-3.68;65.60
33496;BME280;19836;55.812;37.560;2023-02-19T03:44:52;97938.34;;;-3.70;65.19
33496;BME280;19836;55.812;37.560;2023-02-19T03:47:58;97934.06;;;-3.81;65.53
33496;BME280;19836;55.812;37.560;2023-02-19T03:53:24;97924.50;;;-3.91;65.08
33496;BME280;19836;55.812;37.560;2023-02-19T03:56:04;97936.69;;;-3.92;65.18
33496;BME280;19836;55.812;37.560;2023-02-19T03:58:59;97939.31;;;-3.96;65.72
33496;BME280;19836;55.812;37.560;2023-02-19T04:01:41;97933.25;;;-4.01;65.30
33496;BME280;19836;55.812;37.560;2023-02-19T04:06:48;97930.63;;;-4.15;65.36
33496;BME280;19836;55.812;37.560;2023-02-19T04:09:19;97923.69;;;-4.20;65.40
33496;BME280;19836;55.812;37.560;2023-02-19T04:11:50;97927.16;;;-4.15;65.21
33496;BME280;19836;55.812;37.560;2023-02-19T04:14:19;97924.53;;;-4.12;65.53
33496;BME280;19836;55.812;37.560;2023-02-19T04:16:54;97933.25;;;-4.12;65.61
33496;BME280;19836;55.812;37.560;2023-02-19T04:19:25;97928.03;;;-4.16;65.55
33496;BME280;19836;55.812;37.560;2023-02-19T04:21:53;97923.66;;;-4.17;65.64
33496;BME280;19836;55.812;37.560;2023-02-19T04:24:30;97919.31;;;-4.18;66.03
33496;BME280;19836;55.812;37.560;2023-02-19T04:26:59;97923.66;;;-4.17;66.32
33496;BME280;19836;55.812;37.560;2023-02-19T04:29:25;97914.09;;;-4.17;66.59
33496;BME280;19836;55.812;37.560;2023-02-19T04:31:51;97918.44;;;-4.16;66.33
33496;BME280;19836;55.812;37.560;2023-02-19T04:34:17;97916.72;;;-4.21;66.53
33496;BME280;19836;55.812;37.560;2023-02-19T04:36:43;97921.06;;;-4.22;66.37
33496;BME280;19836;55.812;37.560;2023-02-19T04:39:09;97923.69;;;-4.20;66.16
33496;BME280;19836;55.812;37.560;2023-02-19T04:41:35;97916.72;;;-4.21;65.93
33496;BME280;19836;55.812;37.560;2023-02-19T04:44:01;97915.84;;;-4.18;65.76
33496;BME280;19836;55.812;37.560;2023-02-19T04:46:26;97914.09;;;-4.15;66.16
33496;BME280;19836;55.812;37.560;2023-02-19T04:48:52;97921.06;;;-4.13;66.03
33496;BME280;19836;55.812;37.560;2023-02-19T04:51:18;97913.25;;;-4.18;66.55
33496;BME280;19836;55.812;37.560;2023-02-19T04:53:44;97908.91;;;-4.30;66.47
33496;BME280;19836;55.812;37.560;2023-02-19T04:56:15;97912.38;;;-4.36;66.82
33496;BME280;19836;55.812;37.560;2023-02-19T04:58:41;97908.00;;;-4.32;66.70
33496;BME280;19836;55.812;37.560;2023-02-19T05:01:07;97907.13;;;-4.28;66.28
33496;BME280;19836;55.812;37.560;2023-02-19T05:03:33;97913.22;;;-4.23;66.67
33496;BME280;19836;55.812;37.560;2023-02-19T05:06:18;97908.00;;;-4.23;66.95
33496;BME280;19836;55.812;37.560;2023-02-19T05:08:44;97902.78;;;-4.18;66.78
33496;BME280;19836;55.812;37.560;2023-02-19T05:11:11;97898.41;;;-4.18;66.83
33496;BME280;19836;55.812;37.560;2023-02-19T05:13:38;97900.13;;;-4.16;66.99
33496;BME280;19836;55.812;37.560;2023-02-19T05:16:10;97903.66;;;-4.24;66.08
33496;BME280;19836;55.812;37.560;2023-02-19T05:18:47;97905.38;;;-4.25;66.89
33496;BME280;19836;55.812;37.560;2023-02-19T05:21:21;97900.19;;;-4.26;66.78
33496;BME280;19836;55.812;37.560;2023-02-19T05:23:47;97902.78;;;-4.28;67.25
33496;BME280;19836;55.812;37.560;2023-02-19T05:26:19;97896.66;;;-4.19;66.98
33496;BME280;19836;55.812;37.560;2023-02-19T05:28:50;97894.03;;;-4.10;66.70
33496;BME280;19836;55.812;37.560;2023-02-19T05:33:58;97893.16;;;-4.07;66.77
33496;BME280;19836;55.812;37.560;2023-02-19T05:36:24;97882.69;;;-4.11;67.11
33496;BME280;19836;55.812;37.560;2023-02-19T05:38:52;97885.31;;;-4.09;66.65
33496;BME280;19836;55.812;37.560;2023-02-19T05:41:29;97878.34;;;-4.10;66.97
33496;BME280;19836;55.812;37.560;2023-02-19T05:43:55;97872.22;;;-4.03;67.08
33496;BME280;19836;55.812;37.560;2023-02-19T05:46:24;97878.31;;;-3.98;66.62
33496;BME280;19836;55.812;37.560;2023-02-19T05:48:51;97880.91;;;-3.97;66.90
33496;BME280;19836;55.812;37.560;2023-02-19T05:51:21;97881.75;;;-3.87;66.84
33496;BME280;19836;55.812;37.560;2023-02-19T05:53:47;97878.22;;;-3.77;67.16
33496;BME280;19836;55.812;37.560;2023-02-19T05:56:33;97883.38;;;-3.62;66.45
33496;BME280;19836;55.812;37.560;2023-02-19T05:59:03;97875.50;;;-3.55;66.98
33496;BME280;19836;55.812;37.560;2023-02-19T06:01:29;97874.59;;;-3.51;66.52
33496;BME280;19836;55.812;37.560;2023-02-19T06:03:56;97864.13;;;-3.49;66.40
33496;BME280;19836;55.812;37.560;2023-02-19T06:06:23;97865.88;;;-3.45;66.11
33496;BME280;19836;55.812;37.560;2023-02-19T06:08:49;97868.44;;;-3.41;66.29
33496;BME280;19836;55.812;37.560;2023-02-19T06:11:16;97871.06;;;-3.39;66.09
33496;BME280;19836;55.812;37.560;2023-02-19T06:13:42;97868.44;;;-3.42;66.56
33496;BME280;19836;55.812;37.560;2023-02-19T06:16:08;97857.09;;;-3.38;65.90
33496;BME280;19836;55.812;37.560;2023-02-19T06:18:34;97866.66;;;-3.36;66.22
33496;BME280;19836;55.812;37.560;2023-02-19T06:21:02;97866.63;;;-3.28;66.01
33496;BME280;19836;55.812;37.560;2023-02-19T06:23:29;97870.06;;;-3.25;65.66
33496;BME280;19836;55.812;37.560;2023-02-19T06:26:08;97862.16;;;-3.14;65.92
33496;BME280;19836;55.812;37.560;2023-02-19T06:28:35;97869.13;;;-3.13;66.01
33496;BME280;19836;55.812;37.560;2023-02-19T06:31:01;97871.84;;;-3.25;65.30
33496;BME280;19836;55.812;37.560;2023-02-19T06:33:27;97862.28;;;-3.32;65.57
33496;BME280;19836;55.812;37.560;2023-02-19T06:35:53;97859.59;;;-3.18;65.57
33496;BME280;19836;55.812;37.560;2023-02-19T06:38:22;97860.34;;;-3.03;65.60
33496;BME280;19836;55.812;37.560;2023-02-19T06:40:48;97862.06;;;-2.99;65.83
33496;BME280;19836;55.812;37.560;2023-02-19T06:43:14;97870.84;;;-3.06;64.98
33496;BME280;19836;55.812;37.560;2023-02-19T06:45:40;97855.09;;;-3.03;64.87
33496;BME280;19836;55.812;37.560;2023-02-19T06:48:06;97848.22;;;-3.16;64.74
33496;BME280;19836;55.812;37.560;2023-02-19T06:50:31;97850.75;;;-3.03;65.39
33496;BME280;19836;55.812;37.560;2023-02-19T06:52:58;97856.81;;;-2.96;65.22
33496;BME280;19836;55.812;37.560;2023-02-19T06:55:24;97849.84;;;-3.02;65.12
33496;BME280;19836;55.812;37.560;2023-02-19T06:57:49;97846.34;;;-2.99;64.67
33496;BME280;19836;55.812;37.560;2023-02-19T07:00:16;97840.22;;;-2.95;64.63
33496;BME280;19836;55.812;37.560;2023-02-19T07:02:47;97837.53;;;-2.89;64.54
33496;BME280;19836;55.812;37.560;2023-02-19T07:05:13;97830.50;;;-2.84;64.92
33496;BME280;19836;55.812;37.560;2023-02-19T07:07:39;97834.84;;;-2.78;64.51
33496;BME280;19836;55.812;37.560;2023-02-19T07:10:05;97829.56;;;-2.77;64.75
33496;BME280;19836;55.812;37.560;2023-02-19T07:12:31;97830.44;;;-2.78;64.76
33496;BME280;19836;55.812;37.560;2023-02-19T07:14:57;97827.00;;;-2.80;64.37
33496;BME280;19836;55.812;37.560;2023-02-19T07:17:23;97823.59;;;-2.91;64.23
33496;BME280;19836;55.812;37.560;2023-02-19T07:19:48;97823.59;;;-2.94;64.34
33496;BME280;19836;55.812;37.560;2023-02-19T07:22:14;97814.84;;;-2.88;64.56
33496;BME280;19836;55.812;37.560;2023-02-19T07:24:40;97811.41;;;-2.93;64.30
33496;BME280;19836;55.812;37.560;2023-02-19T07:27:06;97809.63;;;-2.92;64.53
33496;BME280;19836;55.812;37.560;2023-02-19T07:29:32;97816.56;;;-2.88;63.87
33496;BME280;19836;55.812;37.560;2023-02-19T07:31:57;97817.34;;;-2.78;64.04
33496;BME280;19836;55.812;37.560;2023-02-19T07:34:23;97812.94;;;-2.72;64.00
33496;BME280;19836;55.812;37.560;2023-02-19T07:36:49;97808.53;;;-2.68;63.88
33496;BME280;19836;55.812;37.560;2023-02-19T07:39:15;97803.19;;;-2.59;64.01
33496;BME280;19836;55.812;37.560;2023-02-19T07:41:41;97814.56;;;-2.60;63.93
33496;BME280;19836;55.812;37.560;2023-02-19T07:44:07;97809.47;;;-2.75;63.88
33496;BME280;19836;55.812;37.560;2023-02-19T07:46:32;97806.09;;;-2.86;63.54
33496;BME280;19836;55.812;37.560;2023-02-19T07:48:59;97806.09;;;-2.86;63.61
33496;BME280;19836;55.812;37.560;2023-02-19T07:51:24;97801.75;;;-2.92;63.50
33496;BME280;19836;55.812;37.560;2023-02-19T07:53:50;97800.94;;;-2.98;63.29
33496;BME280;19836;55.812;37.560;2023-02-19T07:56:17;97799.06;;;-2.84;63.98
33496;BME280;19836;55.812;37.560;2023-02-19T07:58:44;97797.16;;;-2.67;63.56
33496;BME280;19836;55.812;37.560;2023-02-19T08:01:19;97791.81;;;-2.55;63.90
33496;BME280;19836;55.812;37.560;2023-02-19T08:04:05;97789.25;;;-2.63;63.67
33496;BME280;19836;55.812;37.560;2023-02-19T08:06:31;97793.59;;;-2.58;63.13
33496;BME280;19836;55.812;37.560;2023-02-19T08:08:57;97782.22;;;-2.58;63.52
33496;BME280;19836;55.812;37.560;2023-02-19T08:11:22;97783.22;;;-2.72;62.98
33496;BME280;19836;55.812;37.560;2023-02-19T08:14:07;97787.53;;;-2.63;62.91
33496;BME280;19836;55.812;37.560;2023-02-19T08:16:32;97773.56;;;-2.64;63.19
33496;BME280;19836;55.812;37.560;2023-02-19T08:18:59;97788.44;;;-2.69;63.26
33496;BME280;19836;55.812;37.560;2023-02-19T08:21:25;97783.22;;;-2.69;62.80
33496;BME280;19836;55.812;37.560;2023-02-19T08:23:51;97770.91;;;-2.61;63.06
33496;BME280;19836;55.812;37.560;2023-02-19T08:26:17;97771.59;;;-2.46;62.84
33496;BME280;19836;55.812;37.560;2023-02-19T08:28:43;97774.97;;;-2.36;62.94
33496;BME280;19836;55.812;37.560;2023-02-19T08:31:10;97777.66;;;-2.42;62.91
33496;BME280;19836;55.812;37.560;2023-02-19T08:33:36;97768.16;;;-2.51;62.71
33496;BME280;19836;55.812;37.560;2023-02-19T08:36:04;97774.22;;;-2.47;63.13
33496;BME280;19836;55.812;37.560;2023-02-19T08:38:32;97777.59;;;-2.36;63.12
33496;BME280;19836;55.812;37.560;2023-02-19T08:41:08;97760.00;;;-2.25;62.96
33496;BME280;19836;55.812;37.560;2023-02-19T08:43:34;97758.06;;;-2.11;62.69
33496;BME280;19836;55.812;37.560;2023-02-19T08:46:00;97762.19;;;-1.91;62.81
33496;BME280;19836;55.812;37.560;2023-02-19T08:48:27;97761.25;;;-1.85;62.49
33496;BME280;19836;55.812;37.560;2023-02-19T08:50:58;97765.75;;;-1.96;62.16
33496;BME280;19836;55.812;37.560;2023-02-19T08:53:25;97756.22;;;-2.03;62.15
33496;BME280;19836;55.812;37.560;2023-02-19T08:55:51;97757.88;;;-1.96;62.31
33496;BME280;19836;55.812;37.560;2023-02-19T08:58:18;97756.94;;;-1.91;62.42
33496;BME280;19836;55.812;37.560;2023-02-19T09:00:44;97746.66;;;-2.07;62.69
33496;BME280;19836;55.812;37.560;2023-02-19T09:03:10;97752.97;;;-2.20;62.12
33496;BME280;19836;55.812;37.560;2023-02-19T09:05:36;97748.63;;;-2.24;62.30
33496;BME280;19836;55.812;37.560;2023-02-19T09:08:03;97744.13;;;-2.13;62.21
33496;BME280;19836;55.812;37.560;2023-02-19T09:10:29;97745.81;;;-2.09;62.44
33496;BME280;19836;55.812;37.560;2023-02-19T09:12:55;97740.69;;;-2.18;62.47
33496;BME280;19836;55.812;37.560;2023-02-19T09:15:21;97740.66;;;-2.15;62.36
33496;BME280;19836;55.812;37.560;2023-02-19T09:17:51;97745.91;;;-2.15;62.16
33496;BME280;19836;55.812;37.560;2023-02-19T09:20:17;97745.13;;;-2.23;62.00
33496;BME280;19836;55.812;37.560;2023-02-19T09:22:43;97736.44;;;-2.30;61.64
33496;BME280;19836;55.812;37.560;2023-02-19T09:25:09;97735.47;;;-2.21;61.95
33496;BME280;19836;55.812;37.560;2023-02-19T09:27:35;97724.81;;;-2.08;62.07
33496;BME280;19836;55.812;37.560;2023-02-19T09:30:01;97736.03;;;-1.97;62.37
33496;BME280;19836;55.812;37.560;2023-02-19T09:32:32;97726.38;;;-1.96;62.14
33496;BME280;19836;55.812;37.560;2023-02-19T09:34:58;97725.56;;;-2.00;61.83
33496;BME280;19836;55.812;37.560;2023-02-19T09:37:25;97723.03;;;-2.04;62.09
33496;BME280;19836;55.812;37.560;2023-02-19T09:39:52;97716.09;;;-2.11;61.88
33496;BME280;19836;55.812;37.560;2023-02-19T09:42:22;97719.00;;;-2.34;61.70
33496;BME280;19836;55.812;37.560;2023-02-19T09:44:52;97719.91;;;-2.36;61.63
33496;BME280;19836;55.812;37.560;2023-02-19T09:47:25;97719.09;;;-2.38;62.20
33496;BME280;19836;55.812;37.560;2023-02-19T09:50:15;97721.72;;;-2.41;61.78
33496;BME280;19836;55.812;37.560;2023-02-19T09:52:44;97726.94;;;-2.38;62.21
33496;BME280;19836;55.812;37.560;2023-02-19T09:57:42;97712.06;;;-2.36;61.71
33496;BME280;19836;55.812;37.560;2023-02-19T10:00:25;97714.53;;;-2.22;62.07
33496;BME280;19836;55.812;37.560;2023-02-19T10:02:53;97705.56;;;-2.07;61.87
33496;BME280;19836;55.812;37.560;2023-02-19T10:05:20;97707.19;;;-1.98;61.77
33496;BME280;19836;55.812;37.560;2023-02-19T10:07:50;97697.50;;;-1.93;61.76
33496;BME280;19836;55.812;37.560;2023-02-19T10:10:30;97701.84;;;-1.92;61.44
33496;BME280;19836;55.812;37.560;2023-02-19T10:13:22;97707.13;;;-1.94;61.41
33496;BME280;19836;55.812;37.560;2023-02-19T10:15:53;97699.19;;;-1.88;61.42
33496;BME280;19836;55.812;37.560;2023-02-19T10:18:23;97700.00;;;-1.84;61.40
33496;BME280;19836;55.812;37.560;2023-02-19T10:20:50;97699.91;;;-1.77;61.27
33496;BME280;19836;55.812;37.560;2023-02-19T10:23:18;97694.84;;;-1.90;60.88
33496;BME280;19836;55.812;37.560;2023-02-19T10:26:04;97693.31;;;-2.06;61.16
33496;BME280;19836;55.812;37.560;2023-02-19T10:28:33;97702.84;;;-2.01;61.68
33496;BME280;19836;55.812;37.560;2023-02-19T10:31:02;97710.66;;;-1.96;61.98
33496;BME280;19836;55.812;37.560;2023-02-19T10:33:28;97701.03;;;-1.94;61.87
33496;BME280;19836;55.812;37.560;2023-02-19T10:35:55;97698.28;;;-1.85;61.80
33496;BME280;19836;55.812;37.560;2023-02-19T10:38:28;97704.09;;;-1.65;61.92
33496;BME280;19836;55.812;37.560;2023-02-19T10:41:07;97692.41;;;-1.46;61.56
33496;BME280;19836;55.812;37.560;2023-02-19T10:43:38;97693.94;;;-1.33;61.31
33496;BME280;19836;55.812;37.560;2023-02-19T10:46:20;97705.91;;;-1.17;60.89
33496;BME280;19836;55.812;37.560;2023-02-19T10:51:19;97702.44;;;-1.17;60.44
33496;BME280;19836;55.812;37.560;2023-02-19T10:53:49;97690.03;;;-1.11;60.59
33496;BME280;19836;55.812;37.560;2023-02-19T10:56:26;97696.31;;;-1.18;60.21
33496;BME280;19836;55.812;37.560;2023-02-19T10:58:54;97685.28;;;-1.38;59.82
33496;BME280;19836;55.812;37.560;2023-02-19T11:01:27;97683.91;;;-1.60;59.85
33496;BME280;19836;55.812;37.560;2023-02-19T11:04:17;97682.13;;;-1.60;60.09
33496;BME280;19836;55.812;37.560;2023-02-19T11:07:15;97688.06;;;-1.49;60.05
33496;BME280;19836;55.812;37.560;2023-02-19T11:09:43;97679.13;;;-1.37;60.20
33496;BME280;19836;55.812;37.560;2023-02-19T11:12:22;97670.19;;;-1.27;60.32
33496;BME280;19836;55.812;37.560;2023-02-19T11:15:21;97669.16;;;-1.17;60.42
33496;BME280;19836;55.812;37.560;2023-02-19T11:53:33;97664.91;;;-1.77;58.60
33496;BME280;19836;55.812;37.560;2023-02-19T11:59:28;97671.41;;;-2.02;58.78
33496;BME280;19836;55.812;37.560;2023-02-19T12:02:27;97674.94;;;-2.05;59.15
33496;BME280;19836;55.812;37.560;2023-02-19T12:56:03;97665.25;;;-2.01;59.95
33496;BME280;19836;55.812;37.560;2023-02-19T13:03:40;97667.94;;;-2.04;60.47
33496;BME280;19836;55.812;37.560;2023-02-19T13:07:41;97676.72;;;-2.08;60.65
33496;BME280;19836;55.812;37.560;2023-02-19T13:12:41;97666.44;;;-2.23;60.93
33496;BME280;19836;55.812;37.560;2023-02-19T13:15:15;97669.97;;;-2.24;60.59
33496;BME280;19836;55.812;37.560;2023-02-19T13:17:53;97666.44;;;-2.23;61.14
33496;BME280;19836;55.812;37.560;2023-02-19T13:21:00;97671.78;;;-2.29;60.87
33496;BME280;19836;55.812;37.560;2023-02-19T13:23:52;97682.44;;;-2.42;61.10
33496;BME280;19836;55.812;37.560;2023-02-19T13:38:09;97671.19;;;-2.52;61.70
33496;BME280;19836;55.812;37.560;2023-02-19T13:44:21;97668.66;;;-2.58;61.81
33496;BME280;19836;55.812;37.560;2023-02-19T13:46:59;97660.88;;;-2.64;62.30
33496;BME280;19836;55.812;37.560;2023-02-19T13:49:38;97666.13;;;-2.64;62.21
33496;BME280;19836;55.812;37.560;2023-02-19T14:01:07;97659.25;;;-2.76;62.58
33496;BME280;19836;55.812;37.560;2023-02-19T14:06:07;97656.78;;;-2.88;62.65
33496;BME280;19836;55.812;37.560;2023-02-19T14:09:36;97655.06;;;-2.90;63.14
33496;BME280;19836;55.812;37.560;2023-02-19T14:21:53;97647.47;;;-3.11;63.41
33496;BME280;19836;55.812;37.560;2023-02-19T14:24:28;97643.06;;;-3.11;63.69
33496;BME280;19836;55.812;37.560;2023-02-19T14:26:58;97648.22;;;-3.02;63.45
33496;BME280;19836;55.812;37.560;2023-02-19T14:29:27;97650.75;;;-2.94;63.50
33496;BME280;19836;55.812;37.560;2023-02-19T14:31:54;97640.19;;;-2.88;63.38
33496;BME280;19836;55.812;37.560;2023-02-19T14:34:23;97647.16;;;-2.84;63.98
33496;BME280;19836;55.812;37.560;2023-02-19T14:40:20;97648.03;;;-2.85;63.43
33496;BME280;19836;55.812;37.560;2023-02-19T14:42:47;97642.06;;;-2.96;64.01
33496;BME280;19836;55.812;37.560;2023-02-19T15:07:09;97627.31;;;-2.37;64.81
33496;BME280;19836;55.812;37.560;2023-02-19T15:09:52;97629.72;;;-2.22;65.04
33496;BME280;19836;55.812;37.560;2023-02-19T15:18:44;97615.84;;;-2.28;65.51
33496;BME280;19836;55.812;37.560;2023-02-19T15:21:27;97625.28;;;-2.15;65.56
33496;BME280;19836;55.812;37.560;2023-02-19T16:37:39;97603.22;;;-2.64;66.45
33496;BME280;19836;55.812;37.560;2023-02-19T16:40:36;97591.94;;;-2.67;66.57
33496;BME280;19836;55.812;37.560;2023-02-19T16:55:34;97588.44;;;-2.70;66.19
33496;BME280;19836;55.812;37.560;2023-02-19T16:58:01;97592.84;;;-2.73;66.00
33496;BME280;19836;55.812;37.560;2023-02-19T17:00:32;97597.28;;;-2.78;66.39
33496;BME280;19836;55.812;37.560;2023-02-19T17:04:12;97590.31;;;-2.78;66.48
33496;BME280;19836;55.812;37.560;2023-02-19T17:26:34;97587.06;;;-2.96;67.02
33496;BME280;19836;55.812;37.560;2023-02-19T17:29:23;97580.03;;;-2.96;67.24
33496;BME280;19836;55.812;37.560;2023-02-19T17:32:15;97580.03;;;-2.92;67.42
33496;BME280;19836;55.812;37.560;2023-02-19T17:39:25;97579.00;;;-2.81;67.22
33496;BME280;19836;55.812;37.560;2023-02-19T17:42:18;97574.72;;;-2.88;67.30
33496;BME280;19836;55.812;37.560;2023-02-19T17:44:44;97575.63;;;-2.92;66.79
33496;BME280;19836;55.812;37.560;2023-02-19T17:47:11;97574.00;;;-2.99;67.03
33496;BME280;19836;55.812;37.560;2023-02-19T17:49:38;97566.13;;;-3.01;67.16
33496;BME280;19836;55.812;37.560;2023-02-19T17:52:07;97572.22;;;-2.97;67.35
33496;BME280;19836;55.812;37.560;2023-02-19T17:54:34;97575.69;;;-2.95;67.61
33496;BME280;19836;55.812;37.560;2023-02-19T18:02:57;97570.28;;;-2.83;67.42
33496;BME280;19836;55.812;37.560;2023-02-19T18:05:25;97567.78;;;-2.92;67.79
33496;BME280;19836;55.812;37.560;2023-02-19T18:09:16;97568.72;;;-2.96;67.37
33496;BME280;19836;55.812;37.560;2023-02-19T18:11:44;97566.97;;;-2.97;67.99
33496;BME280;19836;55.812;37.560;2023-02-19T18:14:10;97571.34;;;-2.97;68.06
33496;BME280;19836;55.812;37.560;2023-02-19T18:16:36;97568.69;;;-2.95;67.84
33496;BME280;19836;55.812;37.560;2023-02-19T18:19:02;97568.66;;;-2.93;68.16
33496;BME280;19836;55.812;37.560;2023-02-19T18:21:28;97569.56;;;-2.92;67.98
33496;BME280;19836;55.812;37.560;2023-02-19T18:23:54;97565.22;;;-2.97;67.77
33496;BME280;19836;55.812;37.560;2023-02-19T19:33:08;97545.91;;;-2.88;68.13
33496;BME280;19836;55.812;37.560;2023-02-19T19:36:04;97538.91;;;-2.86;67.91